createdAt,value
2022-12-31T00:02:28.590Z,28.48
2022-12-31T00:04:55.819Z,32.65
2022-12-31T00:07:22.508Z,30.45
2022-12-31T00:09:49.205Z,31.92
2022-12-31T00:12:15.840Z,29.98
2022-12-31T00:14:42.517Z,29.25
2022-12-31T00:17:12.344Z,28.58
2022-12-31T00:19:51.141Z,29.50
2022-12-31T00:22:17.948Z,29.63
2022-12-31T00:24:44.645Z,28.55
2022-12-31T00:27:12.501Z,27.27
2022-12-31T00:29:39.272Z,29.60
2022-12-31T00:32:06.167Z,29.55
2022-12-31T00:34:32.932Z,29.02
2022-12-31T00:37:02.133Z,29.10
2022-12-31T00:39:28.926Z,28.23
2022-12-31T00:41:55.940Z,25.63
2022-12-31T00:44:22.871Z,28.30
2022-12-31T00:46:49.832Z,26.88
2022-12-31T00:49:19.609Z,27.23
2022-12-31T00:51:46.240Z,24.98
2022-12-31T00:54:15.775Z,24.25
2022-12-31T00:56:42.601Z,24.95
2022-12-31T00:59:09.592Z,26.45
2022-12-31T01:01:47.631Z,24.90
2022-12-31T01:04:20.548Z,25.65
2022-12-31T01:06:48.080Z,26.20
2022-12-31T01:09:18.226Z,27.10
2022-12-31T01:11:45.158Z,27.05
2022-12-31T01:14:17.642Z,27.30
2022-12-31T01:16:58.924Z,26.17
2022-12-31T01:19:28.550Z,28.13
2022-12-31T01:21:56.969Z,24.38
2022-12-31T01:24:24.178Z,28.27
2022-12-31T01:26:53.367Z,26.70
2022-12-31T01:29:20.031Z,27.50
2022-12-31T01:31:52.626Z,27.95
2022-12-31T01:34:19.426Z,28.45
2022-12-31T01:36:48.538Z,29.58
2022-12-31T01:39:18.288Z,26.52
2022-12-31T01:41:52.391Z,29.65
2022-12-31T01:44:25.046Z,29.80
2022-12-31T01:46:57.617Z,29.35
2022-12-31T01:49:35.309Z,28.70
2022-12-31T01:52:12.353Z,27.98
2022-12-31T01:54:44.967Z,30.40
2022-12-31T01:57:14.526Z,27.67
2022-12-31T01:59:42.631Z,28.40
2022-12-31T02:02:10.117Z,33.22
2022-12-31T02:04:40.109Z,33.00
2022-12-31T02:07:09.030Z,29.55
2022-12-31T02:09:39.405Z,29.52
2022-12-31T02:12:12.285Z,30.38
2022-12-31T02:14:49.770Z,31.08
2022-12-31T02:17:35.406Z,30.05
2022-12-31T02:20:33.041Z,31.55
2022-12-31T02:23:14.002Z,33.70
2022-12-31T02:26:25.931Z,30.83
2022-12-31T02:29:23.007Z,34.77
2022-12-31T02:32:00.280Z,31.45
2022-12-31T02:34:38.947Z,35.50
2022-12-31T02:37:12.097Z,34.85
2022-12-31T02:39:40.717Z,33.83
2022-12-31T02:42:13.012Z,34.40
2022-12-31T02:44:41.990Z,34.08
2022-12-31T02:47:31.296Z,37.00
2022-12-31T02:50:03.704Z,37.30
2022-12-31T02:53:01.207Z,32.30
2022-12-31T02:55:50.762Z,31.90
2022-12-31T02:58:27.055Z,35.58
2022-12-31T03:00:58.484Z,33.38
2022-12-31T03:03:27.336Z,30.98
2022-12-31T03:06:06.089Z,34.47
2022-12-31T03:08:33.987Z,33.75
2022-12-31T03:11:00.668Z,28.55
2022-12-31T03:13:27.293Z,33.85
2022-12-31T03:15:59.594Z,35.75
2022-12-31T03:18:26.284Z,34.83
2022-12-31T03:20:54.377Z,30.92
2022-12-31T03:23:31.368Z,37.10
2022-12-31T03:25:59.273Z,34.70
2022-12-31T03:28:30.232Z,36.03
2022-12-31T03:31:01.524Z,35.85
2022-12-31T03:33:41.904Z,36.03
2022-12-31T03:36:12.007Z,34.33
2022-12-31T03:38:39.072Z,31.75
2022-12-31T03:41:06.591Z,31.70
2022-12-31T03:43:33.292Z,35.40
2022-12-31T03:46:02.241Z,34.20
2022-12-31T03:48:29.884Z,32.92
2022-12-31T03:50:56.620Z,33.50
2022-12-31T03:53:27.138Z,35.47
2022-12-31T03:55:59.043Z,32.85
2022-12-31T03:58:25.840Z,32.35
2022-12-31T04:00:58.245Z,32.95
2022-12-31T04:03:25.038Z,33.45
2022-12-31T04:05:57.750Z,33.90
2022-12-31T04:08:24.770Z,33.28
2022-12-31T04:10:53.907Z,33.85
2022-12-31T04:13:20.626Z,34.05
2022-12-31T04:15:50.414Z,35.15
2022-12-31T04:18:19.386Z,32.80
2022-12-31T04:20:49.174Z,32.25
2022-12-31T04:23:15.854Z,29.25
2022-12-31T04:25:42.627Z,32.58
2022-12-31T04:28:09.310Z,31.35
2022-12-31T04:30:35.994Z,30.00
2022-12-31T04:33:02.723Z,30.48
2022-12-31T04:35:29.378Z,30.80
2022-12-31T04:37:56.193Z,32.08
2022-12-31T04:40:22.843Z,31.20
2022-12-31T04:42:49.557Z,31.35
2022-12-31T04:45:16.303Z,32.35
2022-12-31T04:47:46.954Z,31.42
2022-12-31T04:50:13.589Z,31.13
2022-12-31T04:52:42.951Z,30.98
2022-12-31T04:55:11.512Z,30.00
2022-12-31T04:57:39.726Z,30.38
2022-12-31T05:00:07.479Z,29.52
2022-12-31T05:02:34.376Z,27.40
2022-12-31T05:05:01.156Z,29.27
2022-12-31T05:07:30.085Z,27.83
2022-12-31T05:09:59.707Z,26.63
2022-12-31T05:12:26.604Z,25.50
2022-12-31T05:14:53.902Z,27.38
2022-12-31T05:17:23.990Z,27.23
2022-12-31T05:19:50.705Z,25.92
2022-12-31T05:22:17.420Z,25.58
2022-12-31T05:24:44.150Z,25.85
2022-12-31T05:27:12.445Z,25.08
2022-12-31T05:29:47.492Z,24.35
2022-12-31T05:32:15.571Z,26.55
2022-12-31T05:34:44.235Z,25.23
2022-12-31T05:37:10.868Z,25.52
2022-12-31T05:39:37.541Z,26.20
2022-12-31T05:42:04.299Z,25.13
2022-12-31T05:44:31.028Z,24.60
2022-12-31T05:47:03.756Z,25.98
2022-12-31T05:49:30.552Z,23.55
2022-12-31T05:51:58.439Z,22.10
2022-12-31T05:54:25.245Z,24.33
2022-12-31T05:56:51.998Z,23.67
2022-12-31T05:59:18.824Z,23.75
2022-12-31T06:01:45.547Z,23.75
2022-12-31T06:04:13.156Z,21.60
2022-12-31T06:06:41.792Z,21.33
2022-12-31T06:09:08.936Z,22.02
2022-12-31T06:11:35.828Z,21.45
2022-12-31T06:14:07.675Z,22.27
2022-12-31T06:16:35.653Z,20.52
2022-12-31T06:19:02.816Z,20.70
2022-12-31T06:21:30.011Z,22.40
2022-12-31T06:23:59.860Z,21.48
2022-12-31T06:26:27.591Z,21.90
2022-12-31T06:28:54.390Z,21.40
2022-12-31T06:31:21.097Z,21.80
2022-12-31T06:33:50.467Z,21.88
2022-12-31T06:36:17.491Z,20.55
2022-12-31T06:38:44.603Z,24.73
2022-12-31T06:41:14.091Z,21.40
2022-12-31T06:43:41.641Z,23.20
2022-12-31T06:46:11.375Z,22.42
2022-12-31T06:48:40.388Z,22.27
2022-12-31T06:51:17.491Z,22.83
2022-12-31T06:53:46.216Z,20.85
2022-12-31T06:56:31.292Z,20.98
2022-12-31T06:59:00.553Z,23.13
2022-12-31T07:01:45.917Z,22.55
2022-12-31T07:04:37.238Z,22.67
2022-12-31T07:07:11.645Z,21.92
2022-12-31T07:10:29.049Z,21.85
2022-12-31T07:13:17.525Z,21.48
2022-12-31T07:16:22.690Z,22.20
2022-12-31T07:19:20.718Z,21.95
2022-12-31T07:21:51.509Z,22.65
2022-12-31T07:24:23.073Z,22.08
2022-12-31T07:27:17.317Z,23.48
2022-12-31T07:30:09.752Z,23.23
2022-12-31T07:35:54.588Z,22.50
2022-12-31T07:38:51.452Z,21.25
2022-12-31T07:41:27.092Z,21.55
2022-12-31T07:44:07.114Z,21.13
2022-12-31T07:46:52.320Z,21.77
2022-12-31T07:49:19.361Z,21.17
2022-12-31T07:51:46.398Z,19.50
2022-12-31T07:54:14.434Z,19.17
2022-12-31T07:56:42.553Z,21.33
2022-12-31T07:59:27.714Z,20.00
2022-12-31T08:02:22.765Z,19.92
2022-12-31T08:04:55.222Z,19.67
2022-12-31T08:07:35.030Z,19.45
2022-12-31T08:10:04.272Z,21.27
2022-12-31T08:12:34.224Z,21.15
2022-12-31T08:15:01.171Z,21.50
2022-12-31T08:17:29.177Z,21.70
2022-12-31T08:19:56.141Z,21.38
2022-12-31T08:22:44.741Z,21.80
2022-12-31T08:25:32.799Z,22.42
2022-12-31T08:28:26.434Z,21.48
2022-12-31T08:31:25.641Z,23.25
2022-12-31T08:34:20.509Z,17.45
2022-12-31T08:37:07.755Z,21.38
2022-12-31T08:39:53.629Z,21.02
2022-12-31T08:42:37.777Z,22.02
2022-12-31T08:45:43.315Z,19.85
2022-12-31T08:48:23.102Z,22.55
2022-12-31T08:50:50.024Z,21.23
2022-12-31T08:53:17.100Z,20.88
2022-12-31T08:55:46.252Z,20.65
2022-12-31T08:58:29.543Z,22.80
2022-12-31T09:00:59.325Z,20.48
2022-12-31T09:03:49.666Z,22.63
2022-12-31T09:06:38.205Z,21.00
2022-12-31T09:09:27.878Z,25.77
2022-12-31T09:12:18.297Z,25.48
2022-12-31T09:14:48.690Z,24.90
2022-12-31T09:17:20.236Z,24.95
2022-12-31T09:19:52.383Z,27.52
2022-12-31T09:22:22.185Z,29.70
2022-12-31T09:24:49.536Z,29.90
2022-12-31T09:27:28.824Z,23.70
2022-12-31T09:30:04.675Z,28.60
2022-12-31T09:33:01.991Z,32.45
2022-12-31T09:35:28.643Z,31.27
2022-12-31T09:38:19.660Z,29.83
2022-12-31T09:41:16.215Z,27.80
2022-12-31T09:43:55.968Z,29.25
2022-12-31T09:46:39.055Z,33.72
2022-12-31T09:49:44.098Z,34.03
2022-12-31T09:52:40.038Z,30.70
2022-12-31T09:55:09.557Z,27.70
2022-12-31T09:58:08.982Z,33.55
2022-12-31T10:00:46.147Z,34.40
2022-12-31T10:03:34.858Z,32.70
2022-12-31T10:06:25.803Z,30.08
2022-12-31T10:09:16.981Z,31.80
2022-12-31T10:11:46.275Z,30.50
2022-12-31T10:14:24.728Z,29.20
2022-12-31T10:16:54.171Z,29.92
2022-12-31T10:19:32.424Z,30.50
2022-12-31T10:22:24.114Z,31.77
2022-12-31T10:25:08.113Z,32.08
2022-12-31T10:27:55.773Z,29.55
2022-12-31T10:30:24.172Z,33.30
2022-12-31T10:33:06.790Z,29.30
2022-12-31T10:35:43.484Z,28.42
2022-12-31T10:38:47.604Z,31.42
2022-12-31T10:41:46.744Z,30.13
2022-12-31T10:44:28.625Z,29.65
2022-12-31T10:47:16.922Z,30.42
2022-12-31T10:49:58.522Z,31.70
2022-12-31T10:52:46.710Z,32.00
2022-12-31T10:55:26.485Z,30.30
2022-12-31T10:58:17.811Z,28.92
2022-12-31T11:01:13.443Z,31.35
2022-12-31T11:03:51.513Z,29.95
2022-12-31T11:06:36.275Z,30.55
2022-12-31T11:09:31.297Z,30.67
2022-12-31T11:12:26.339Z,30.55
2022-12-31T11:15:21.806Z,28.95
2022-12-31T11:18:06.745Z,29.23
2022-12-31T11:20:57.870Z,31.88
2022-12-31T11:23:51.903Z,28.70
2022-12-31T11:26:56.233Z,29.42
2022-12-31T11:30:04.488Z,28.90
2022-12-31T11:32:36.472Z,28.83
2022-12-31T11:38:09.231Z,29.45
2022-12-31T11:41:01.443Z,29.02
2022-12-31T11:43:52.471Z,27.48
2022-12-31T11:46:28.265Z,26.02
2022-12-31T11:49:14.765Z,27.30
2022-12-31T11:52:21.547Z,29.40
2022-12-31T11:55:12.706Z,29.08
2022-12-31T11:57:44.170Z,26.90
2022-12-31T12:00:25.820Z,26.77
2022-12-31T12:03:04.112Z,26.77
2022-12-31T12:05:32.135Z,27.08
2022-12-31T12:07:58.809Z,27.05
2022-12-31T12:10:37.176Z,26.25
2022-12-31T12:13:33.406Z,23.65
2022-12-31T12:16:03.378Z,25.60
2022-12-31T12:18:54.476Z,25.13
2022-12-31T12:21:24.138Z,26.35
2022-12-31T12:23:58.209Z,25.23
2022-12-31T12:26:45.085Z,26.58
2022-12-31T12:29:33.559Z,25.67
2022-12-31T12:32:23.425Z,26.52
2022-12-31T12:34:53.911Z,25.70
2022-12-31T12:37:34.882Z,27.27
2022-12-31T12:40:20.262Z,26.58
2022-12-31T12:42:48.677Z,25.98
2022-12-31T12:45:19.715Z,26.83
2022-12-31T12:47:48.876Z,24.58
2022-12-31T12:50:21.996Z,24.27
2022-12-31T12:53:31.698Z,25.00
2022-12-31T12:56:28.561Z,26.83
2022-12-31T12:59:21.097Z,27.75
2022-12-31T13:02:33.522Z,25.60
2022-12-31T13:05:33.981Z,27.20
2022-12-31T13:08:20.849Z,26.45
2022-12-31T13:11:09.980Z,26.75
2022-12-31T13:14:01.585Z,27.98
2022-12-31T13:16:47.251Z,23.73
2022-12-31T13:19:45.096Z,23.58
2022-12-31T13:22:25.000Z,28.30
2022-12-31T13:25:07.543Z,26.05
2022-12-31T13:27:45.703Z,25.30
2022-12-31T13:30:20.111Z,30.23
2022-12-31T13:32:52.726Z,29.42
2022-12-31T13:35:30.669Z,29.67
2022-12-31T13:38:23.840Z,30.10
2022-12-31T13:41:39.355Z,25.48
2022-12-31T13:44:08.601Z,27.38
2022-12-31T13:47:00.934Z,28.13
2022-12-31T13:52:14.796Z,26.13
2022-12-31T13:54:52.170Z,28.33
2022-12-31T13:57:42.719Z,30.33
2022-12-31T14:00:21.367Z,30.20
2022-12-31T14:02:52.778Z,29.58
2022-12-31T14:05:37.476Z,30.33
2022-12-31T14:08:06.956Z,30.17
2022-12-31T14:10:51.620Z,31.98
2022-12-31T14:13:38.765Z,30.05
2022-12-31T14:16:54.054Z,31.88
2022-12-31T14:19:51.141Z,29.52
2022-12-31T14:22:34.271Z,31.67
2022-12-31T14:25:04.094Z,31.00
2022-12-31T14:27:34.930Z,30.77
2022-12-31T14:30:06.197Z,27.05
2022-12-31T14:32:45.395Z,25.45
2022-12-31T14:35:36.895Z,30.40
2022-12-31T14:38:20.255Z,32.17
2022-12-31T14:41:12.027Z,32.25
2022-12-31T14:44:08.726Z,33.13
2022-12-31T14:47:15.675Z,30.95
2022-12-31T14:50:00.301Z,25.23
2022-12-31T14:52:47.663Z,32.35
2022-12-31T14:55:16.890Z,32.53
2022-12-31T14:58:25.295Z,30.38
2022-12-31T15:00:35.852Z,33.05
2022-12-31T15:03:23.322Z,30.90
2022-12-31T15:05:54.336Z,33.83
2022-12-31T15:08:31.433Z,32.90
2022-12-31T15:10:58.018Z,31.98
2022-12-31T15:13:27.363Z,33.22
2022-12-31T15:16:15.872Z,27.85
2022-12-31T15:18:42.486Z,33.30
2022-12-31T15:21:13.597Z,33.13
2022-12-31T15:23:42.154Z,33.10
2022-12-31T15:26:23.196Z,33.85
2022-12-31T15:29:05.867Z,32.88
2022-12-31T15:31:35.942Z,35.28
2022-12-31T15:34:07.935Z,35.20
2022-12-31T15:39:11.796Z,33.70
2022-12-31T15:42:35.693Z,36.85
2022-12-31T15:44:44.364Z,37.35
2022-12-31T15:47:45.093Z,36.65
2022-12-31T15:50:19.089Z,37.15
2022-12-31T15:52:54.079Z,37.28
2022-12-31T15:55:27.160Z,38.53
2022-12-31T15:58:18.614Z,40.78
2022-12-31T16:01:15.028Z,41.83
2022-12-31T16:03:52.175Z,41.42
2022-12-31T16:06:18.878Z,42.20
2022-12-31T16:08:48.388Z,38.75
2022-12-31T16:11:15.843Z,41.60
2022-12-31T16:13:46.024Z,42.38
2022-12-31T16:16:28.690Z,41.53
2022-12-31T16:18:56.554Z,40.20
2022-12-31T16:21:36.243Z,46.53
2022-12-31T16:24:26.142Z,49.50
2022-12-31T16:27:00.111Z,33.10
2022-12-31T16:29:30.133Z,45.47
2022-12-31T16:31:59.695Z,42.55
2022-12-31T16:34:27.665Z,42.13
2022-12-31T16:37:00.240Z,41.38
2022-12-31T16:40:01.056Z,43.22
2022-12-31T16:42:29.138Z,40.80
2022-12-31T16:44:59.111Z,43.00
2022-12-31T16:47:37.442Z,40.38
2022-12-31T16:50:24.861Z,40.42
2022-12-31T16:52:59.424Z,41.90
2022-12-31T16:55:29.536Z,38.80
2022-12-31T16:58:22.468Z,42.92
2022-12-31T17:00:50.961Z,41.78
2022-12-31T17:03:21.317Z,42.95
2022-12-31T17:06:30.377Z,41.63
2022-12-31T17:08:59.723Z,42.13
2022-12-31T17:11:45.158Z,44.50
2022-12-31T17:14:13.478Z,44.30
2022-12-31T17:16:57.760Z,42.08
2022-12-31T17:19:50.404Z,43.28
2022-12-31T17:22:36.407Z,34.70
2022-12-31T17:25:15.679Z,43.55
2022-12-31T17:27:55.908Z,45.35
2022-12-31T17:30:44.845Z,44.33
2022-12-31T17:33:14.238Z,46.30
2022-12-31T17:35:45.360Z,46.10
2022-12-31T17:38:18.010Z,47.97
2022-12-31T17:40:51.289Z,46.15
2022-12-31T17:43:21.194Z,48.15
2022-12-31T17:45:51.034Z,50.58
2022-12-31T17:48:21.013Z,48.25
2022-12-31T17:50:56.344Z,46.20
2022-12-31T17:53:23.258Z,50.92
2022-12-31T17:56:03.504Z,49.47
2022-12-31T17:58:56.583Z,49.47
2022-12-31T18:01:23.976Z,45.28
2022-12-31T18:03:50.765Z,49.63
2022-12-31T18:06:18.399Z,47.58
2022-12-31T18:08:48.741Z,51.03
2022-12-31T18:11:19.571Z,52.63
2022-12-31T18:13:49.434Z,51.00
2022-12-31T18:16:16.858Z,53.17
2022-12-31T18:18:43.632Z,53.28
2022-12-31T18:21:21.861Z,50.92
2022-12-31T18:26:22.050Z,49.40
2022-12-31T18:28:52.461Z,51.25
2022-12-31T18:31:32.208Z,47.47
2022-12-31T18:33:59.349Z,48.35
2022-12-31T18:36:27.831Z,48.17
2022-12-31T18:38:54.573Z,48.00
2022-12-31T18:41:34.448Z,45.70
2022-12-31T18:44:01.091Z,46.35
2022-12-31T18:46:28.364Z,45.63
2022-12-31T18:48:55.063Z,44.35
2022-12-31T18:51:31.377Z,44.80
2022-12-31T18:54:00.006Z,45.83
2022-12-31T18:56:26.949Z,45.03
2022-12-31T18:58:58.499Z,45.05
2022-12-31T19:01:38.688Z,44.55
2022-12-31T19:04:13.797Z,42.60
2022-12-31T19:06:40.815Z,45.65
2022-12-31T19:09:30.877Z,46.95
2022-12-31T19:11:57.904Z,47.50
2022-12-31T19:14:25.741Z,47.55
2022-12-31T19:16:56.832Z,49.17
2022-12-31T19:19:23.577Z,48.00
2022-12-31T19:21:50.315Z,49.63
2022-12-31T19:24:31.072Z,48.17
2022-12-31T19:26:57.764Z,48.85
2022-12-31T19:32:10.686Z,50.58
2022-12-31T19:34:39.458Z,49.08
2022-12-31T19:37:06.189Z,47.40
2022-12-31T19:39:32.866Z,48.63
2022-12-31T19:41:59.921Z,47.40
2022-12-31T19:44:26.729Z,45.63
2022-12-31T19:46:53.551Z,46.03
2022-12-31T19:49:20.280Z,48.80
2022-12-31T19:51:46.932Z,47.10
2022-12-31T19:54:13.823Z,47.28
2022-12-31T19:56:43.624Z,44.03
2022-12-31T19:59:10.842Z,49.03
2022-12-31T20:01:37.985Z,50.05
2022-12-31T20:04:05.040Z,50.10
2022-12-31T20:06:31.817Z,51.08
2022-12-31T20:08:58.405Z,51.10
2022-12-31T20:11:25.406Z,50.78
2022-12-31T20:13:55.899Z,49.63
2022-12-31T20:16:25.064Z,53.05
2022-12-31T20:18:51.767Z,50.72
2022-12-31T20:21:21.460Z,51.42
2022-12-31T20:23:52.351Z,43.58
2022-12-31T20:26:22.777Z,47.45
2022-12-31T20:28:53.701Z,47.65
2022-12-31T20:31:25.067Z,42.03
2022-12-31T20:33:55.391Z,47.13
2022-12-31T20:36:22.795Z,47.15
2022-12-31T20:38:49.752Z,48.17
2022-12-31T20:41:20.528Z,49.13
2022-12-31T20:43:50.027Z,46.45
2022-12-31T20:46:22.202Z,47.38
2022-12-31T20:48:52.859Z,45.25
2022-12-31T20:51:20.625Z,47.55
2022-12-31T20:53:51.933Z,47.15
2022-12-31T20:56:18.901Z,47.20
2022-12-31T20:58:53.399Z,48.63
2022-12-31T21:01:24.038Z,46.88
2022-12-31T21:04:05.061Z,49.05
2022-12-31T21:06:33.550Z,51.40
2022-12-31T21:09:02.331Z,50.65
2022-12-31T21:11:29.064Z,51.33
2022-12-31T21:13:59.556Z,52.42
2022-12-31T21:16:27.257Z,53.80
2022-12-31T21:18:54.071Z,52.70
2022-12-31T21:21:21.567Z,52.35
2022-12-31T21:23:48.254Z,54.58
2022-12-31T21:26:14.978Z,52.47
2022-12-31T21:28:45.356Z,52.08
2022-12-31T21:31:14.393Z,50.58
2022-12-31T21:33:45.314Z,54.88
2022-12-31T21:36:17.501Z,53.83
2022-12-31T21:38:46.157Z,52.50
2022-12-31T21:41:18.126Z,56.17
2022-12-31T21:43:44.768Z,57.77
2022-12-31T21:46:11.522Z,58.47
2022-12-31T21:48:38.407Z,58.90
2022-12-31T21:51:10.974Z,58.58
2022-12-31T21:53:37.802Z,54.58
2022-12-31T21:56:08.913Z,56.78
2022-12-31T21:58:47.078Z,56.57
2022-12-31T22:01:22.569Z,55.10
2022-12-31T22:03:49.663Z,55.85
2022-12-31T22:06:24.828Z,59.78
2022-12-31T22:08:56.371Z,60.45
2022-12-31T22:11:26.516Z,64.18
2022-12-31T22:13:54.348Z,66.38
2022-12-31T22:16:22.496Z,65.63
2022-12-31T22:18:50.260Z,67.55
2022-12-31T22:21:20.741Z,64.07
2022-12-31T22:23:53.058Z,63.72
2022-12-31T22:26:26.177Z,66.32
2022-12-31T22:28:55.375Z,66.13
2022-12-31T22:31:23.535Z,66.20
2022-12-31T22:33:53.112Z,63.42
2022-12-31T22:36:23.912Z,70.13
2022-12-31T22:38:54.552Z,70.43
2022-12-31T22:41:22.303Z,70.97
2022-12-31T22:43:51.444Z,73.03
2022-12-31T22:46:20.041Z,76.85
2022-12-31T22:48:47.411Z,72.20
2022-12-31T22:51:15.370Z,75.07
2022-12-31T22:53:42.870Z,76.15
2022-12-31T22:56:11.168Z,72.43
2022-12-31T22:58:44.734Z,74.88
2022-12-31T23:01:26.041Z,71.93
2022-12-31T23:03:57.687Z,74.73
2022-12-31T23:06:27.545Z,76.50
2022-12-31T23:08:54.858Z,80.40
2022-12-31T23:11:21.686Z,77.75
2022-12-31T23:13:51.462Z,89.30
2022-12-31T23:16:22.482Z,91.93
2022-12-31T23:18:52.140Z,111.20
2022-12-31T23:21:18.821Z,106.53
2022-12-31T23:23:45.475Z,116.18
2022-12-31T23:26:12.188Z,117.53
2022-12-31T23:28:38.850Z,162.77
2022-12-31T23:31:06.784Z,159.55
2022-12-31T23:33:33.590Z,200.43
2022-12-31T23:36:07.320Z,206.40
2022-12-31T23:38:45.332Z,203.55
2022-12-31T23:41:14.139Z,201.93
2022-12-31T23:43:44.781Z,194.60
2022-12-31T23:46:12.909Z,205.02
2022-12-31T23:48:41.727Z,191.32
2022-12-31T23:51:09.175Z,199.57
2022-12-31T23:53:39.211Z,194.88
2022-12-31T23:56:20.919Z,200.18
2022-12-31T23:58:54.089Z,183.52
